Time,TemperatureF,DewpointF,PressureIn,WindDirection,WindDirectionDegrees,WindSpeedMPH,WindSpeedGustMPH,Humidity,HourlyPrecipIn,Conditions,Clouds,dailyrainin,SoftwareType,DateUTC
2013-09-22 00:11:00,79.0,49.0,29.64,WNW,290,6.0,8.0,35,0.00,,,0.00,,2013-09-22 07:11:00,
2013-09-22 00:21:00,79.0,50.0,29.64,West,277,4.0,7.0,36,0.00,,,0.00,,2013-09-22 07:21:00,
2013-09-22 00:52:00,78.0,51.0,29.63,WNW,285,7.0,14.0,39,0.00,,,0.00,,2013-09-22 07:52:00,
2013-09-22 01:11:00,78.0,51.0,29.63,WNW,282,4.0,11.0,39,0.00,,,0.00,,2013-09-22 08:11:00,
2013-09-22 01:22:00,78.0,52.0,29.63,WNW,299,8.0,17.0,40,0.00,,,0.00,,2013-09-22 08:22:00,
2013-09-22 01:52:00,77.0,52.0,29.64,NW,316,7.0,13.0,42,0.00,,,0.00,,2013-09-22 08:52:00,
2013-09-22 02:21:00,76.0,51.0,29.63,WNW,290,5.0,8.0,42,0.00,,,0.00,,2013-09-22 09:21:00,
2013-09-22 02:53:00,75.0,50.0,29.63,WNW,295,5.0,7.0,42,0.00,,,0.00,,2013-09-22 09:53:00,
2013-09-22 03:12:00,75.0,51.0,29.62,WNW,283,3.0,11.0,43,0.00,,,0.00,,2013-09-22 10:12:00,
2013-09-22 03:23:00,74.0,51.0,29.62,West,273,7.0,12.0,44,0.00,,,0.00,,2013-09-22 10:23:00,
2013-09-22 03:53:00,73.0,51.0,29.62,West,264,5.0,11.0,46,0.00,,,0.00,,2013-09-22 10:53:00,
2013-09-22 04:22:00,72.0,51.0,29.63,WNW,288,3.0,6.0,47,0.00,,,0.00,,2013-09-22 11:22:00,
2013-09-22 04:52:00,72.0,51.0,29.64,WNW,290,3.0,6.0,47,0.00,,,0.00,,2013-09-22 11:52:00,
2013-09-22 05:12:00,71.0,49.0,29.65,NW,309,6.0,13.0,46,0.00,,,0.00,,2013-09-22 12:12:00,
2013-09-22 05:21:00,71.0,49.0,29.66,WNW,300,5.0,14.0,45,0.00,,,0.00,,2013-09-22 12:21:00,
2013-09-22 05:52:00,71.0,47.0,29.67,WNW,286,7.0,7.0,43,0.00,,,0.00,,2013-09-22 12:52:00,
2013-09-22 06:12:00,71.0,47.0,29.67,NNW,333,5.0,5.0,42,0.00,,,0.00,,2013-09-22 13:12:00,
2013-09-22 06:21:00,70.0,46.0,29.67,NW,312,5.0,7.0,42,0.00,,,0.00,,2013-09-22 13:21:00,
2013-09-22 06:52:00,70.0,46.0,29.69,NW,318,4.0,9.0,43,0.00,,,0.00,,2013-09-22 13:52:00,
2013-09-22 07:22:00,70.0,47.0,29.70,NW,312,4.0,8.0,44,0.00,,,0.00,,2013-09-22 14:22:00,
2013-09-22 07:52:00,71.0,48.0,29.70,NW,305,4.0,7.0,44,0.00,,,0.00,,2013-09-22 14:52:00,
2013-09-22 08:12:00,72.0,48.0,29.71,NW,315,7.0,10.0,42,0.00,,,0.00,,2013-09-22 15:12:00,
2013-09-22 08:23:00,73.0,48.0,29.71,NW,313,7.0,11.0,41,0.00,,,0.00,,2013-09-22 15:23:00,
2013-09-22 08:54:00,75.0,49.0,29.72,NW,305,8.0,13.0,40,0.00,,,0.00,,2013-09-22 15:54:00,
2013-09-22 09:23:00,76.0,48.0,29.72,WNW,303,6.0,8.0,37,0.00,,,0.00,,2013-09-22 16:23:00,
2013-09-22 09:54:00,78.0,49.0,29.73,NW,323,9.0,18.0,36,0.00,,,0.00,,2013-09-22 16:54:00,
2013-09-22 10:22:00,80.0,52.0,29.74,NW,304,12.0,16.0,38,0.00,,,0.00,,2013-09-22 17:22:00,
2013-09-22 10:53:00,81.0,53.0,29.73,WNW,291,6.0,17.0,38,0.00,,,0.00,,2013-09-22 17:53:00,
2013-09-22 11:12:00,81.0,51.0,29.73,NW,318,9.0,11.0,35,0.00,,,0.00,,2013-09-22 18:12:00,
2013-09-22 11:22:00,82.0,51.0,29.73,NW,324,8.0,12.0,34,0.00,,,0.00,,2013-09-22 18:22:00,
2013-09-22 11:52:00,85.0,50.0,29.72,West,267,5.0,6.0,30,0.00,,,0.00,,2013-09-22 18:52:00,
2013-09-22 12:22:00,85.0,51.0,29.71,NW,312,4.0,7.0,31,0.00,,,0.00,,2013-09-22 19:22:00,
2013-09-22 12:52:00,87.0,51.0,29.70,NW,313,5.0,8.0,29,0.00,,,0.00,,2013-09-22 19:52:00,
2013-09-22 13:22:00,87.0,37.0,29.69,NW,312,3.0,3.0,17,0.00,,,0.00,,2013-09-22 20:22:00,
2013-09-22 14:22:00,89.0,35.0,29.66,NNE,26,4.0,6.0,15,0.00,,,0.00,,2013-09-22 21:22:00,
2013-09-22 14:54:00,91.0,39.0,29.65,NW,320,4.0,11.0,16,0.00,,,0.00,,2013-09-22 21:54:00,
2013-09-22 16:22:00,91.0,44.0,29.64,NW,322,4.0,9.0,20,0.00,,,0.00,,2013-09-22 23:22:00,
2013-09-22 16:52:00,90.0,39.0,29.64,WNW,285,6.0,10.0,17,0.00,,,0.00,,2013-09-22 23:52:00,
2013-09-22 17:12:00,90.0,41.0,29.64,NW,305,3.0,8.0,18,0.00,,,0.00,,2013-09-23 00:12:00,
2013-09-22 17:22:00,90.0,39.0,29.64,WNW,283,4.0,5.0,17,0.00,,,0.00,,2013-09-23 00:22:00,
2013-09-22 17:53:00,89.0,34.0,29.64,NNW,335,8.0,9.0,14,0.00,,,0.00,,2013-09-23 00:53:00,
2013-09-22 18:12:00,88.0,33.0,29.64,NNW,342,6.0,9.0,14,0.00,,,0.00,,2013-09-23 01:12:00,
2013-09-22 18:22:00,88.0,33.0,29.65,NNE,18,4.0,4.0,14,0.00,,,0.00,,2013-09-23 01:22:00,
2013-09-22 18:42:00,87.0,34.0,29.65,NNE,19,3.0,6.0,15,0.00,,,0.00,,2013-09-23 01:42:00,
2013-09-22 18:52:00,86.0,33.0,29.65,NNE,15,4.0,7.0,15,0.00,,,0.00,,2013-09-23 01:52:00,
2013-09-22 19:11:00,85.0,34.0,29.66,North,7,4.0,6.0,16,0.00,,,0.00,,2013-09-23 02:11:00,
2013-09-22 19:22:00,85.0,34.0,29.66,North,8,3.0,7.0,16,0.00,,,0.00,,2013-09-23 02:22:00,
2013-09-22 19:52:00,83.0,35.0,29.67,North,10,4.0,5.0,18,0.00,,,0.00,,2013-09-23 02:52:00,
2013-09-22 20:22:00,81.0,36.0,29.68,NNE,18,2.0,2.0,20,0.00,,,0.00,,2013-09-23 03:22:00,
2013-09-22 20:54:00,79.0,38.0,29.70,NNE,26,0.0,0.0,23,0.00,,,0.00,,2013-09-23 03:54:00,
2013-09-22 21:14:00,77.0,37.0,29.70,NNW,348,2.0,3.0,24,0.00,,,0.00,,2013-09-23 04:14:00,
2013-09-22 21:24:00,76.0,38.0,29.71,NNW,348,1.0,2.0,25,0.00,,,0.00,,2013-09-23 04:24:00,
2013-09-22 21:53:00,74.0,39.0,29.71,NNW,347,0.0,1.0,28,0.00,,,0.00,,2013-09-23 04:53:00,
2013-09-22 22:12:00,73.0,39.0,29.72,NNE,19,3.0,4.0,29,0.00,,,0.00,,2013-09-23 05:12:00,
2013-09-22 22:22:00,73.0,39.0,29.72,NNE,12,3.0,4.0,29,0.00,,,0.00,,2013-09-23 05:22:00,
2013-09-22 22:43:00,73.0,40.0,29.72,NNE,32,1.0,2.0,30,0.00,,,0.00,,2013-09-23 05:43:00,
2013-09-22 22:53:00,72.0,40.0,29.72,NNE,31,1.0,2.0,31,0.00,,,0.00,,2013-09-23 05:53:00,
2013-09-22 23:12:00,71.0,42.0,29.73,NW,306,1.0,2.0,35,0.00,,,0.00,,2013-09-23 06:12:00,
2013-09-22 23:22:00,71.0,42.0,29.73,NW,307,0.0,0.0,35,0.00,,,0.00,,2013-09-23 06:22:00,
2013-09-22 23:52:00,70.0,42.0,29.73,NW,314,0.0,0.0,36,0.00,,,0.00,,2013-09-23 06:52:00,